Time;durP1;ratioP1;P1;durP2;ratioP2;P2;SDS_P1;SDS_P2;PMS_P1;PMS_P2;Temp;Humidity;BMP_temperature;BMP_pressure;BME280_temperature;BME280_humidity;BME280_pressure;Samples;Min_cycle;Max_cycle;Signal;HPM_P1;HPM_P2
2022/12/28 00:01:39;;;;;;;7.30;4.20;;;;;;;-2.06;95.73;99956.41;10485237;28;20036;-78
2022/12/28 00:06:42;;;;;;;7.05;3.60;;;;;;;-2.02;95.67;99960.31;10506499;28;20044;-77
2022/12/28 00:11:44;;;;;;;7.82;4.10;;;;;;;-1.99;96.00;99959.88;10520355;28;20059;-77
2022/12/28 00:16:46;;;;;;;8.55;3.97;;;;;;;-1.94;95.88;99967.28;10511764;28;20036;-77
2022/12/28 00:21:48;;;;;;;5.50;3.78;;;;;;;-1.91;95.72;99956.94;10513299;28;20048;-77
2022/12/28 00:26:51;;;;;;;7.63;3.92;;;;;;;-1.87;95.84;99960.00;10466636;28;20036;-77
2022/12/28 00:31:54;;;;;;;8.13;3.70;;;;;;;-1.86;95.82;99964.34;10475051;28;20510;-77
2022/12/28 00:36:59;;;;;;;8.75;4.47;;;;;;;-1.85;96.16;99960.63;10492650;28;20048;-76
2022/12/28 00:42:01;;;;;;;6.85;3.55;;;;;;;-1.84;95.68;99967.63;10511047;28;20049;-76
2022/12/28 00:47:05;;;;;;;7.47;4.30;;;;;;;-1.80;95.91;99949.19;10510783;28;20052;-77
2022/12/28 00:52:08;;;;;;;6.53;3.75;;;;;;;-1.78;96.03;99961.38;10502940;28;20049;-76
2022/12/28 00:57:10;;;;;;;10.65;3.83;;;;;;;-1.78;95.95;99953.31;10472250;28;20045;-76
2022/12/28 01:02:12;;;;;;;5.00;3.28;;;;;;;-1.75;96.30;99952.06;10496179;28;20056;-77
2022/12/28 01:07:15;;;;;;;6.72;3.40;;;;;;;-1.73;96.26;99948.13;10479004;28;20044;-75
2022/12/28 01:12:17;;;;;;;10.13;3.50;;;;;;;-1.69;96.36;99946.66;10471631;28;20036;-78
2022/12/28 01:17:19;;;;;;;6.85;3.53;;;;;;;-1.67;96.52;99947.25;10509016;28;20047;-80
2022/12/28 01:22:22;;;;;;;6.70;3.20;;;;;;;-1.62;96.15;99935.81;10483498;28;20057;-77
2022/12/28 01:27:24;;;;;;;6.13;3.05;;;;;;;-1.57;96.53;99939.50;10518214;28;20048;-76
2022/12/28 01:32:27;;;;;;;7.35;3.58;;;;;;;-1.54;96.16;99946.34;10496949;28;20043;-77
2022/12/28 01:37:30;;;;;;;7.03;3.30;;;;;;;-1.50;96.32;99930.56;10517492;28;20059;-76
2022/12/28 01:42:33;;;;;;;8.05;3.08;;;;;;;-1.47;96.96;99930.13;10491673;28;20067;-78
2022/12/28 01:47:36;;;;;;;5.65;2.80;;;;;;;-1.43;96.98;99928.63;10489592;28;20043;-76
2022/12/28 01:52:44;;;;;;;5.22;2.80;;;;;;;-1.40;97.04;99929.00;10515293;28;20049;-77
2022/12/28 01:57:51;;;;;;;7.18;3.10;;;;;;;-1.39;97.40;99930.69;10510480;28;20032;-77
2022/12/28 02:02:59;;;;;;;6.35;2.78;;;;;;;-1.38;97.46;99926.13;10488411;28;20044;-77
2022/12/28 02:08:06;;;;;;;7.10;2.93;;;;;;;-1.35;97.35;99931.06;10495033;28;20037;-77
2022/12/28 02:13:09;;;;;;;8.80;2.80;;;;;;;-1.35;97.54;99928.38;10506089;28;20048;-76
2022/12/28 02:18:12;;;;;;;6.75;3.20;;;;;;;-1.35;97.95;99923.81;10503041;28;20045;-78
2022/12/28 02:23:26;;;;;;;6.60;2.88;;;;;;;-1.34;97.91;99919.25;10465901;28;20040;-78
2022/12/28 02:28:56;;;;;;;7.32;3.15;;;;;;;-1.32;97.82;99917.16;10503821;28;20411;-77
2022/12/28 02:34:05;;;;;;;8.73;2.92;;;;;;;-1.30;97.67;99909.69;10491128;28;20048;-76
2022/12/28 02:39:17;;;;;;;4.20;2.67;;;;;;;-1.31;97.79;99916.94;10494300;28;20044;-77
2022/12/28 03:00:55;;;;;;;4.88;2.55;;;;;;;-1.26;98.46;99918.94;10490638;28;20038;-77
2022/12/28 03:11:52;;;;;;;5.47;2.45;;;;;;;-1.22;98.89;99914.75;10499819;28;20041;-78
2022/12/28 03:33:07;;;;;;;7.88;2.75;;;;;;;-1.09;99.41;99920.03;10474570;28;20483;-77
2022/12/28 03:38:12;;;;;;;4.30;2.72;;;;;;;-1.07;99.19;99917.09;10479131;28;21319;-77
2022/12/28 03:48:42;;;;;;;5.47;2.58;;;;;;;-1.00;99.71;99915.19;10471046;28;20492;-78
2022/12/28 03:53:46;;;;;;;6.82;2.03;;;;;;;-0.97;99.55;99917.44;10492325;28;20060;-77
2022/12/28 03:58:51;;;;;;;5.43;2.20;;;;;;;-0.95;99.89;99921.53;10495471;28;20040;-76
2022/12/28 04:03:55;;;;;;;3.13;1.80;;;;;;;-0.92;99.70;99915.69;10482680;28;20044;-77
2022/12/28 04:08:58;;;;;;;3.33;1.60;;;;;;;-0.86;99.50;99918.56;10501685;28;20465;-76
2022/12/28 04:14:04;;;;;;;3.42;1.60;;;;;;;-0.83;99.96;99913.53;10502464;28;20464;-76
2022/12/28 04:19:09;;;;;;;2.22;1.48;;;;;;;-0.79;99.80;99920.13;10494249;28;20498;-77
2022/12/28 04:24:11;;;;;;;4.65;1.60;;;;;;;-0.76;99.68;99930.44;10504110;28;20384;-78
2022/12/28 04:29:15;;;;;;;2.80;1.20;;;;;;;-0.72;99.82;99928.13;10509978;28;20059;-74
2022/12/28 04:34:31;;;;;;;3.88;1.42;;;;;;;-0.69;100.00;99917.75;10496553;28;20515;-76
2022/12/28 04:39:40;;;;;;;3.45;1.55;;;;;;;-0.66;99.67;99936.16;10491097;28;20051;-75
2022/12/28 04:44:42;;;;;;;2.17;1.20;;;;;;;-0.64;100.00;99935.91;10500879;28;20057;-75
2022/12/28 04:49:44;;;;;;;2.88;1.30;;;;;;;-0.61;100.00;99924.69;10490691;28;20036;-76
2022/12/28 04:54:47;;;;;;;2.60;1.25;;;;;;;-0.56;100.00;99924.81;10512536;28;20045;-76
2022/12/28 04:59:49;;;;;;;3.80;1.60;;;;;;;-0.49;100.00;99930.97;10512028;28;20052;-74
2022/12/28 05:04:52;;;;;;;3.20;0.90;;;;;;;-0.45;100.00;99937.53;10508477;28;20138;-75
2022/12/28 05:09:54;;;;;;;1.63;1.00;;;;;;;-0.43;100.00;99940.84;10497140;28;20040;-75
2022/12/28 05:14:56;;;;;;;1.48;0.80;;;;;;;-0.41;100.00;99946.00;10505995;28;20406;-74
2022/12/28 05:19:58;;;;;;;1.42;1.00;;;;;;;-0.39;100.00;99946.59;10510959;28;20140;-75
2022/12/28 05:25:00;;;;;;;3.60;1.38;;;;;;;-0.40;100.00;99948.47;10513136;28;20051;-75
2022/12/28 05:30:03;;;;;;;2.92;1.08;;;;;;;-0.36;100.00;99954.22;10512623;28;20053;-77
2022/12/28 05:35:06;;;;;;;0.90;0.68;;;;;;;-0.35;100.00;99959.41;10500733;28;20503;-77
2022/12/28 05:40:09;;;;;;;2.70;1.00;;;;;;;-0.36;100.00;99962.31;10529998;28;20415;-76
2022/12/28 05:45:11;;;;;;;3.15;1.20;;;;;;;-0.36;100.00;99978.47;10505206;28;20469;-76
2022/12/28 05:50:13;;;;;;;1.63;1.10;;;;;;;-0.45;100.00;99996.84;10524429;28;20060;-75
2022/12/28 05:55:15;;;;;;;1.30;1.20;;;;;;;-0.51;100.00;99996.91;10493260;28;20048;-79
2022/12/28 06:00:18;;;;;;;0.77;0.77;;;;;;;-0.53;100.00;100013.28;10528484;28;20534;-75
2022/12/28 06:05:20;;;;;;;0.55;0.55;;;;;;;-0.54;100.00;100010.81;10526833;28;20550;-76
2022/12/28 06:10:22;;;;;;;1.85;1.00;;;;;;;-0.54;100.00;100017.03;10517732;28;20189;-75
2022/12/28 06:15:24;;;;;;;1.80;1.10;;;;;;;-0.54;100.00;100019.72;10489055;28;20092;-76
2022/12/28 06:20:26;;;;;;;1.55;1.13;;;;;;;-0.52;100.00;100030.28;10510647;28;20506;-76
2022/12/28 06:25:29;;;;;;;2.63;1.13;;;;;;;-0.54;100.00;100033.19;10523449;28;20040;-75
2022/12/28 06:30:31;;;;;;;0.60;0.60;;;;;;;-0.53;100.00;100037.53;10517070;28;20048;-77
2022/12/28 06:35:33;;;;;;;0.70;0.70;;;;;;;-0.55;100.00;100036.94;10528510;28;20430;-75
2022/12/28 06:40:35;;;;;;;2.22;0.50;;;;;;;-0.54;100.00;100052.06;10514516;28;20040;-76
2022/12/28 06:45:37;;;;;;;1.33;0.63;;;;;;;-0.55;100.00;100052.28;10512768;28;20513;-76
2022/12/28 06:50:39;;;;;;;0.63;0.60;;;;;;;-0.48;100.00;100043.09;10501704;28;20036;-76
2022/12/28 06:55:42;;;;;;;3.08;0.70;;;;;;;-0.45;100.00;100055.31;10508576;28;20396;-76
2022/12/28 07:00:46;;;;;;;1.95;1.27;;;;;;;-0.39;100.00;100076.78;10503156;28;20088;-76
2022/12/28 07:05:49;;;;;;;1.98;1.25;;;;;;;-0.46;100.00;100084.13;10527507;28;20040;-76
2022/12/28 07:10:51;;;;;;;0.90;0.85;;;;;;;-0.50;100.00;100080.25;10470436;28;20048;-76
2022/12/28 07:15:53;;;;;;;1.10;0.98;;;;;;;-0.49;100.00;100086.44;10474481;28;20041;-75
2022/12/28 07:21:06;;;;;;;1.63;0.98;;;;;;;-0.37;100.00;100076.56;10508928;28;20043;-76
2022/12/28 07:26:21;;;;;;;1.42;1.00;;;;;;;-0.43;100.00;100096.31;10506130;28;20578;-76
2022/12/28 07:31:27;;;;;;;0.75;0.75;;;;;;;-0.51;100.00;100096.63;10487907;28;20037;-75
2022/12/28 07:36:30;;;;;;;1.67;1.10;;;;;;;-0.54;100.00;100103.25;10483706;28;20051;-77
2022/12/28 07:41:34;;;;;;;1.83;0.98;;;;;;;-0.55;100.00;100104.31;10511740;28;20134;-75
2022/12/28 07:46:40;;;;;;;4.45;1.60;;;;;;;-0.46;100.00;100105.69;10503063;28;20043;-75
2022/12/28 07:51:42;;;;;;;1.40;1.08;;;;;;;-0.42;100.00;100109.59;10508954;28;20040;-75
2022/12/28 07:56:45;;;;;;;1.33;0.82;;;;;;;-0.41;100.00;100119.31;10519476;28;20052;-76
2022/12/28 08:01:49;;;;;;;0.70;0.70;;;;;;;-0.43;100.00;100129.50;10525198;28;20048;-76
2022/12/28 08:06:52;;;;;;;1.65;0.80;;;;;;;-0.44;100.00;100122.47;10508259;28;20052;-74
2022/12/28 08:11:54;;;;;;;2.50;1.20;;;;;;;-0.48;100.00;100128.53;10505287;28;20041;-76
2022/12/28 08:16:56;;;;;;;6.22;1.42;;;;;;;-0.52;100.00;100141.63;10519605;28;20044;-76
2022/12/28 08:21:59;;;;;;;0.68;0.63;;;;;;;-0.54;100.00;100138.28;10518310;28;20044;-76
2022/12/28 08:27:01;;;;;;;1.85;0.90;;;;;;;-0.57;99.87;100148.69;10504044;28;20055;-75
2022/12/28 08:32:04;;;;;;;0.95;0.90;;;;;;;-0.58;99.91;100145.19;10502145;28;20041;-75
2022/12/28 08:37:06;;;;;;;0.85;0.85;;;;;;;-0.55;100.00;100155.50;10519228;28;20119;-77
2022/12/28 08:42:09;;;;;;;2.15;1.35;;;;;;;-0.48;100.00;100150.09;10519907;28;20044;-75
2022/12/28 08:47:11;;;;;;;1.15;0.77;;;;;;;-0.45;100.00;100155.84;10515772;28;20044;-77
2022/12/28 08:52:13;;;;;;;1.60;1.20;;;;;;;-0.40;99.92;100158.69;10504112;28;20059;-77
2022/12/28 08:57:16;;;;;;;2.40;1.30;;;;;;;-0.35;99.19;100153.50;10529257;28;20051;-76
2022/12/28 09:02:18;;;;;;;1.00;0.90;;;;;;;-0.41;99.24;100170.53;10529134;28;20516;-77
2022/12/28 09:07:20;;;;;;;2.30;0.63;;;;;;;-0.46;99.45;100173.06;10519870;28;20044;-77
2022/12/28 09:12:23;;;;;;;3.90;1.15;;;;;;;-0.57;99.52;100189.94;10532608;28;20040;-77
2022/12/28 09:17:26;;;;;;;3.30;1.10;;;;;;;-0.55;99.08;100178.94;10517926;28;20049;-77
2022/12/28 09:22:29;;;;;;;1.42;0.95;;;;;;;-0.63;98.42;100183.56;10523601;28;20048;-77
2022/12/28 09:27:35;;;;;;;1.48;1.27;;;;;;;-0.65;98.19;100193.75;10530643;28;20040;-77
2022/12/28 09:32:38;;;;;;;6.13;1.27;;;;;;;-0.64;98.04;100202.66;10521527;28;20050;-77
2022/12/28 09:37:44;;;;;;;1.98;1.30;;;;;;;-0.63;97.55;100209.69;10505617;28;20063;-75
2022/12/28 09:42:47;;;;;;;2.70;1.35;;;;;;;-0.67;97.82;100214.69;10529028;28;20056;-77
2022/12/28 09:47:54;;;;;;;1.35;1.17;;;;;;;-0.71;97.81;100207.25;10525988;28;20051;-75
2022/12/28 09:53:03;;;;;;;1.65;0.90;;;;;;;-0.70;97.51;100219.66;10498802;28;20044;-76
2022/12/28 09:58:14;;;;;;;1.38;1.10;;;;;;;-0.73;97.49;100230.88;10504497;28;20037;-76
2022/12/28 10:03:25;;;;;;;1.43;0.97;;;;;;;-0.82;97.42;100230.34;10494342;28;20036;-75
2022/12/28 10:08:33;;;;;;;2.22;1.25;;;;;;;-0.83;96.84;100234.06;10528555;28;20043;-76
2022/12/28 10:13:37;;;;;;;4.30;1.40;;;;;;;-0.81;97.23;100233.84;10503641;28;20047;-76
2022/12/28 10:18:39;;;;;;;3.42;1.35;;;;;;;-0.80;96.96;100249.78;10529106;28;20036;-76
2022/12/28 10:23:42;;;;;;;1.85;1.40;;;;;;;-0.71;96.72;100256.56;10529296;28;20045;-75
2022/12/28 10:28:52;;;;;;;1.25;1.08;;;;;;;-0.68;96.35;100264.25;10512487;28;20414;-77
2022/12/28 10:33:54;;;;;;;2.75;1.30;;;;;;;-0.66;96.29;100266.72;10507900;28;20041;-77
2022/12/28 10:44:29;;;;;;;4.10;1.42;;;;;;;-0.55;96.16;100284.84;10515406;28;20063;-76
2022/12/28 10:49:36;;;;;;;5.22;1.23;;;;;;;-0.52;96.38;100280.91;10529248;28;20414;-76
2022/12/28 10:54:38;;;;;;;2.40;1.60;;;;;;;-0.44;95.85;100281.47;10529707;28;20045;-76
2022/12/28 10:59:42;;;;;;;2.97;1.35;;;;;;;-0.43;95.92;100288.53;10525035;28;20044;-76
2022/12/28 11:05:04;;;;;;;1.38;1.15;;;;;;;-0.43;96.36;100285.00;10522373;28;20509;-75
2022/12/28 11:10:29;;;;;;;2.03;1.75;;;;;;;-0.49;96.35;100284.00;10507799;28;20067;-76
2022/12/28 11:15:32;;;;;;;0.70;0.70;;;;;;;-0.49;96.69;100281.31;10510208;28;20040;-76
2022/12/28 11:20:37;;;;;;;2.80;1.83;;;;;;;-0.47;96.70;100278.41;10510126;28;20044;-75
2022/12/28 11:25:40;;;;;;;1.73;1.33;;;;;;;-0.43;96.52;100280.44;10509982;28;20055;-76
2022/12/28 11:30:43;;;;;;;3.00;1.38;;;;;;;-0.40;96.29;100280.00;10508579;28;20040;-76
2022/12/28 11:35:47;;;;;;;3.65;1.77;;;;;;;-0.41;96.36;100283.72;10526375;28;20040;-74
2022/12/28 11:46:22;;;;;;;2.05;1.52;;;;;;;-0.54;95.66;100286.50;10464806;28;20487;-77
2022/12/28 11:51:34;;;;;;;0.82;0.80;;;;;;;-0.70;95.31;100292.41;10482462;28;20056;-76
2022/12/28 11:56:42;;;;;;;2.28;0.95;;;;;;;-0.73;94.75;100295.53;10463426;28;20045;-76
2022/12/28 12:01:45;;;;;;;2.20;0.98;;;;;;;-0.82;94.65;100303.06;10479627;28;20040;-76
2022/12/28 12:06:47;;;;;;;1.55;0.80;;;;;;;-0.82;94.95;100313.84;10463184;28;20049;-76
2022/12/28 12:11:56;;;;;;;3.83;1.25;;;;;;;-0.84;94.71;100313.22;10459634;28;20058;-77
2022/12/28 12:17:03;;;;;;;3.13;1.10;;;;;;;-0.84;94.39;100315.09;10435674;28;20041;-76
2022/12/28 12:22:13;;;;;;;0.63;0.63;;;;;;;-0.88;94.54;100321.94;10460893;28;20053;-76
2022/12/28 12:27:35;;;;;;;2.15;1.10;;;;;;;-0.93;95.14;100328.78;10434744;28;20052;-77
2022/12/28 12:32:44;;;;;;;1.27;1.05;;;;;;;-0.95;94.79;100330.88;10471241;28;20415;-77
2022/12/28 12:38:10;;;;;;;1.98;1.17;;;;;;;-0.96;94.82;100317.63;10476563;28;20055;-76
2022/12/28 12:43:29;;;;;;;1.88;1.10;;;;;;;-0.99;95.32;100331.53;10533320;28;20041;-76
2022/12/28 12:48:37;;;;;;;1.08;0.80;;;;;;;-1.04;95.48;100325.94;10533553;28;20521;-77
2022/12/28 12:53:47;;;;;;;;;;;;;;;-1.09;95.35;100342.72;10505862;28;20049;-76
2022/12/28 12:59:38;;;;;;;2.78;1.02;;;;;;;-1.14;95.52;100337.16;10514561;28;19927;-76
2022/12/28 13:04:45;;;;;;;1.13;0.93;;;;;;;-1.09;96.04;100348.13;10524611;28;20517;-77
2022/12/28 13:09:48;;;;;;;1.58;1.23;;;;;;;-1.06;96.02;100345.00;10530444;28;20525;-76
2022/12/28 13:15:00;;;;;;;1.88;1.27;;;;;;;-1.03;96.69;100344.59;10529595;28;20419;-78
2022/12/28 13:20:09;;;;;;;2.08;1.42;;;;;;;-0.97;97.01;100349.13;10512286;28;20052;-77
2022/12/28 13:25:24;;;;;;;2.17;1.70;;;;;;;-0.94;97.20;100354.06;10529279;28;20639;-77
2022/12/28 13:30:27;;;;;;;3.22;1.60;;;;;;;-0.89;96.57;100355.28;10524074;28;20044;-77
2022/12/28 13:35:31;;;;;;;2.80;1.17;;;;;;;-0.84;96.97;100361.72;10526868;28;20040;-76
2022/12/28 13:40:36;;;;;;;1.95;1.55;;;;;;;-0.75;96.58;100362.28;10505407;28;20051;-76
2022/12/28 13:45:39;;;;;;;2.15;1.33;;;;;;;-0.73;96.61;100352.94;10528226;28;20044;-76
2022/12/28 13:50:42;;;;;;;2.80;1.48;;;;;;;-0.77;96.57;100364.38;10528296;28;20384;-78
2022/12/28 13:55:48;;;;;;;4.13;1.42;;;;;;;-0.80;96.66;100370.19;10527111;28;20052;-76
2022/12/28 14:00:52;;;;;;;2.00;1.00;;;;;;;-0.82;95.98;100366.88;10510257;28;20040;-77
2022/12/28 14:06:00;;;;;;;2.10;1.25;;;;;;;-0.87;96.24;100369.38;10527413;28;20536;-76
2022/12/28 14:11:04;;;;;;;3.90;1.40;;;;;;;-0.94;95.85;100374.78;10527598;28;20047;-77
2022/12/28 14:16:07;;;;;;;1.88;1.40;;;;;;;-1.00;95.50;100372.97;10492681;28;20561;-80
2022/12/28 14:21:10;;;;;;;3.95;1.90;;;;;;;-1.07;95.13;100381.03;10483599;28;20043;-76
2022/12/28 14:26:20;;;;;;;1.30;1.20;;;;;;;-1.12;95.06;100388.94;10474263;28;20049;-77
2022/12/28 14:31:27;;;;;;;1.92;1.50;;;;;;;-0.74;94.54;100385.50;10497452;28;20418;-77
2022/12/28 14:36:45;;;;;;;3.67;1.47;;;;;;;-0.35;94.59;100390.72;10497187;28;20044;-76
2022/12/28 14:41:47;;;;;;;2.53;1.83;;;;;;;-0.05;94.18;100387.41;10499209;28;20040;-77
2022/12/28 14:46:53;;;;;;;5.32;3.17;;;;;;;0.07;92.75;100395.63;10529915;28;20418;-77
2022/12/28 14:51:55;;;;;;;1.90;1.67;;;;;;;0.16;91.70;100387.03;10511851;28;20043;-76
2022/12/28 14:57:03;;;;;;;2.50;1.65;;;;;;;0.10;91.12;100398.72;10513430;28;20045;-75
2022/12/28 15:02:22;;;;;;;2.28;1.42;;;;;;;-0.04;90.65;100389.06;10501341;28;20040;-75
2022/12/28 15:07:24;;;;;;;3.28;1.85;;;;;;;-0.14;90.66;100386.03;10483396;28;20061;-78
2022/12/28 15:12:27;;;;;;;2.20;1.23;;;;;;;-0.20;90.63;100393.09;10484863;28;20052;-74
2022/12/28 15:17:29;;;;;;;3.15;1.77;;;;;;;-0.36;90.65;100399.00;10517348;28;20834;-76
2022/12/28 15:22:31;;;;;;;3.08;1.85;;;;;;;-0.43;90.79;100403.59;10484750;28;20387;-78
2022/12/28 15:27:34;;;;;;;1.58;1.48;;;;;;;-0.50;90.83;100425.22;10517555;28;20040;-76
2022/12/28 15:32:36;;;;;;;2.65;1.90;;;;;;;-0.53;90.94;100422.91;10504221;28;20041;-77
2022/12/28 15:37:38;;;;;;;2.70;1.73;;;;;;;-0.49;91.11;100426.84;10509732;28;20046;-75
2022/12/28 15:42:44;;;;;;;1.75;1.35;;;;;;;-0.43;90.54;100427.84;10522781;28;20041;-77
2022/12/28 15:47:46;;;;;;;3.60;1.83;;;;;;;-0.49;90.70;100432.25;10524577;28;20090;-76
2022/12/28 15:52:49;;;;;;;6.07;2.08;;;;;;;-0.31;90.42;100426.97;10525961;28;20048;-76
2022/12/28 15:57:51;;;;;;;1.80;1.45;;;;;;;-0.22;90.05;100427.53;10501533;28;20037;-75
2022/12/28 16:02:54;;;;;;;3.80;1.70;;;;;;;-0.15;89.48;100420.25;10521485;28;20053;-78
2022/12/28 16:07:56;;;;;;;4.90;3.08;;;;;;;-0.32;89.05;100422.63;10523046;28;20048;-80
2022/12/28 16:12:58;;;;;;;5.50;3.30;;;;;;;-0.33;88.98;100412.88;10525540;28;20352;-80
2022/12/28 16:18:01;;;;;;;3.70;2.60;;;;;;;-0.25;88.19;100429.84;10490157;28;20045;-78
2022/12/28 16:23:03;;;;;;;3.42;2.33;;;;;;;-0.23;88.57;100423.19;10521458;28;20573;-80
2022/12/28 16:28:05;;;;;;;4.10;2.40;;;;;;;-0.19;88.31;100428.97;10520048;28;20040;-81
2022/12/28 16:33:08;;;;;;;3.72;1.80;;;;;;;-0.20;87.84;100438.94;10497840;28;20041;-75
2022/12/28 16:38:13;;;;;;;2.50;1.80;;;;;;;-0.14;87.42;100438.09;10483544;28;20051;-76
2022/12/28 16:43:17;;;;;;;2.92;1.75;;;;;;;-0.14;87.12;100431.88;10511963;28;20032;-75
2022/12/28 16:48:19;;;;;;;2.75;1.98;;;;;;;-0.13;86.20;100441.59;10506569;28;20052;-73
2022/12/28 16:53:21;;;;;;;3.08;1.50;;;;;;;-0.07;86.58;100432.66;10467253;28;20045;-74
2022/12/28 16:58:23;;;;;;;10.25;2.05;;;;;;;-0.15;86.32;100430.22;10506646;28;20037;-74
2022/12/28 17:03:26;;;;;;;1.73;1.50;;;;;;;-0.42;86.01;100438.44;10509125;28;20508;-76
2022/12/28 17:08:28;;;;;;;1.80;1.50;;;;;;;-0.56;86.10;100446.78;10507677;28;20044;-74
2022/12/28 17:13:30;;;;;;;2.45;1.88;;;;;;;-0.47;86.09;100440.94;10484861;28;20041;-75
2022/12/28 17:18:33;;;;;;;5.13;2.40;;;;;;;-0.42;85.99;100454.59;10505989;28;20029;-76
2022/12/28 17:23:41;;;;;;;3.53;2.10;;;;;;;-0.43;85.48;100454.81;10531328;28;20514;-75
2022/12/28 17:28:43;;;;;;;2.83;2.05;;;;;;;-0.30;85.75;100462.84;10534377;28;20051;-75
2022/12/28 17:33:47;;;;;;;4.68;1.80;;;;;;;-0.28;85.07;100470.72;10510083;28;20037;-74
2022/12/28 17:38:49;;;;;;;2.58;1.33;;;;;;;-0.19;84.30;100464.03;10507778;28;20450;-75
2022/12/28 17:43:56;;;;;;;1.58;1.25;;;;;;;-0.33;83.74;100464.09;10517670;28;20044;-75
2022/12/28 17:48:59;;;;;;;2.10;1.38;;;;;;;-0.28;83.42;100463.47;10522443;28;20048;-75
2022/12/28 17:54:01;;;;;;;3.08;1.58;;;;;;;-0.34;82.74;100467.03;10521307;28;20414;-75
2022/12/28 17:59:04;;;;;;;2.67;1.30;;;;;;;-0.24;82.46;100464.69;10523015;28;20495;-76
2022/12/28 18:04:07;;;;;;;4.45;1.40;;;;;;;-0.22;82.32;100473.38;10525775;28;20040;-76
2022/12/28 18:09:10;;;;;;;3.80;1.70;;;;;;;-0.20;82.29;100471.28;10528542;28;20059;-76
2022/12/28 18:14:12;;;;;;;1.90;1.50;;;;;;;-0.18;82.02;100468.38;10506619;28;20032;-77
2022/12/28 18:19:15;;;;;;;5.40;2.45;;;;;;;-0.25;81.19;100472.97;10504010;28;20059;-77
2022/12/28 18:24:19;;;;;;;2.38;1.60;;;;;;;-0.20;80.89;100479.38;10526969;28;20450;-75
2022/12/28 18:29:21;;;;;;;5.82;2.10;;;;;;;-0.22;80.20;100486.03;10508812;28;20501;-77
2022/12/28 18:34:24;;;;;;;2.30;1.70;;;;;;;-0.20;80.84;100483.94;10507735;28;20050;-77
2022/12/28 18:39:26;;;;;;;2.28;1.70;;;;;;;-0.27;79.69;100484.00;10526899;28;20052;-77
2022/12/28 18:44:28;;;;;;;2.05;1.40;;;;;;;-0.29;80.41;100493.34;10526388;28;20539;-77
2022/12/28 18:49:31;;;;;;;2.55;1.20;;;;;;;-0.13;80.15;100492.84;10526387;28;20517;-76
2022/12/28 18:54:35;;;;;;;3.97;1.38;;;;;;;-0.23;79.77;100500.56;10523083;28;20047;-76
2022/12/28 18:59:37;;;;;;;2.35;1.67;;;;;;;-0.25;79.79;100503.47;10471283;28;20048;-77
2022/12/28 19:04:39;;;;;;;1.42;1.30;;;;;;;-0.14;79.49;100504.69;10494566;28;20041;-78
2022/12/28 19:10:09;;;;;;;2.63;1.40;;;;;;;-0.06;79.34;100507.94;10494028;28;20454;-78
2022/12/28 19:15:06;;;;;;;3.17;1.52;;;;;;;0.00;79.67;100511.69;10506625;28;20037;-78
2022/12/28 19:20:12;;;;;;;3.40;1.75;;;;;;;0.07;79.33;100508.94;10528112;28;20526;-76
2022/12/28 19:25:15;;;;;;;2.38;1.60;;;;;;;-0.07;79.14;100508.16;10528080;28;20056;-76
2022/12/28 19:30:17;;;;;;;2.65;1.88;;;;;;;-0.09;78.99;100507.56;10520020;28;20419;-76
2022/12/28 19:35:20;;;;;;;3.58;1.52;;;;;;;-0.08;79.27;100522.69;10487055;28;20041;-77
2022/12/28 19:40:22;;;;;;;2.88;1.52;;;;;;;-0.25;79.32;100521.53;10495112;28;20082;-77
2022/12/28 19:45:24;;;;;;;4.40;1.45;;;;;;;-0.18;79.24;100512.34;10525034;28;20449;-77
2022/12/28 19:50:27;;;;;;;3.40;1.48;;;;;;;-0.13;79.14;100522.50;10505146;28;20041;-77
2022/12/28 19:55:33;;;;;;;2.60;1.60;;;;;;;-0.21;78.56;100526.25;10524348;28;20049;-78
2022/12/28 20:00:40;;;;;;;3.05;1.80;;;;;;;-0.23;79.01;100522.97;10509731;28;20049;-76
2022/12/28 20:05:44;;;;;;;3.17;1.45;;;;;;;-0.17;78.62;100518.59;10491813;28;20426;-78
2022/12/28 20:10:54;;;;;;;1.77;1.40;;;;;;;-0.20;78.97;100532.47;10527804;28;20049;-78
2022/12/28 20:15:56;;;;;;;2.33;1.45;;;;;;;-0.24;78.21;100525.88;10512585;28;20041;-79
2022/12/28 20:21:03;;;;;;;2.42;1.60;;;;;;;-0.13;77.73;100536.00;10485125;28;20041;-78
2022/12/28 20:26:05;;;;;;;2.40;1.58;;;;;;;-0.25;77.44;100545.78;10450369;28;20458;-77
2022/12/28 20:31:11;;;;;;;1.75;1.35;;;;;;;-0.34;77.47;100543.34;10481473;28;20043;-77
2022/12/28 20:36:24;;;;;;;2.92;1.95;;;;;;;-0.31;78.05;100540.22;10525771;28;20055;-77
2022/12/28 20:46:51;;;;;;;3.03;1.60;;;;;;;-0.32;78.03;100557.44;10508234;28;20045;-76
2022/12/28 20:51:54;;;;;;;2.95;1.40;;;;;;;-0.32;77.89;100568.22;10527688;28;20446;-76
2022/12/28 20:56:56;;;;;;;1.80;1.17;;;;;;;-0.24;77.58;100561.75;10516030;28;20047;-77
2022/12/28 21:01:59;;;;;;;2.15;1.20;;;;;;;-0.38;78.02;100558.25;10510648;28;20143;-78
2022/12/28 21:07:03;;;;;;;1.30;1.13;;;;;;;-0.32;77.75;100557.44;10534086;28;20037;-77
2022/12/28 21:12:06;;;;;;;2.05;1.00;;;;;;;-0.31;78.02;100552.88;10517436;28;20638;-76
2022/12/28 21:17:09;;;;;;;1.00;0.90;;;;;;;-0.52;77.61;100564.75;10528972;28;20047;-78
2022/12/28 21:22:11;;;;;;;1.05;0.85;;;;;;;-0.49;78.39;100567.00;10508054;28;20044;-78
2022/12/28 21:27:13;;;;;;;3.85;1.63;;;;;;;-0.30;77.69;100559.91;10515771;28;20529;-77
2022/12/28 21:32:15;;;;;;;1.10;1.00;;;;;;;-0.39;77.61;100566.56;10500656;28;20037;-77
2022/12/28 21:37:33;;;;;;;2.95;1.15;;;;;;;-0.40;77.77;100554.13;10517954;28;20507;-76
2022/12/28 21:42:35;;;;;;;0.93;0.90;;;;;;;-0.45;77.72;100564.72;10495290;28;20487;-77
2022/12/28 21:47:38;;;;;;;3.22;1.33;;;;;;;-0.39;77.70;100564.69;10516146;28;20037;-77
2022/12/28 21:52:40;;;;;;;1.80;1.27;;;;;;;-0.43;77.80;100558.06;10508917;28;20049;-77
2022/12/28 21:57:42;;;;;;;2.38;1.40;;;;;;;-0.51;77.62;100558.31;10530618;28;20064;-78
2022/12/28 22:13:26;;;;;;;2.88;1.55;;;;;;;-0.56;77.97;100579.66;10530214;28;20189;-76
2022/12/28 22:18:29;;;;;;;4.88;1.70;;;;;;;-0.61;78.46;100568.69;10511239;28;20513;-77
2022/12/28 22:23:31;;;;;;;1.67;1.30;;;;;;;-0.68;77.64;100567.88;10530991;28;20040;-75
2022/12/28 22:28:34;;;;;;;6.75;3.15;;;;;;;-0.45;77.83;100568.25;10529536;28;20045;-77
2022/12/28 22:33:36;;;;;;;2.60;1.50;;;;;;;-0.23;77.89;100578.75;10529363;28;20040;-76
2022/12/28 22:38:38;;;;;;;3.50;2.28;;;;;;;-0.44;77.21;100575.28;10539697;28;20055;-76
2022/12/28 22:43:41;;;;;;;5.03;2.20;;;;;;;-0.37;77.50;100575.25;10542367;28;20048;-77
2022/12/28 22:48:43;;;;;;;4.68;3.00;;;;;;;-0.23;77.40;100581.44;10498915;28;20045;-76
2022/12/28 22:53:48;;;;;;;4.88;2.00;;;;;;;-0.47;77.33;100581.09;10514621;28;20053;-78
2022/12/28 22:58:50;;;;;;;5.07;2.97;;;;;;;-0.47;77.48;100575.72;10503905;28;20633;-80
2022/12/28 23:03:53;;;;;;;6.35;3.13;;;;;;;-0.41;77.82;100574.84;10518634;28;20422;-79
2022/12/28 23:08:55;;;;;;;4.57;2.85;;;;;;;-0.28;77.50;100581.25;10529397;28;20049;-79
2022/12/28 23:15:14;;;;;;;5.50;3.33;;;;;;;-0.42;77.32;100585.84;10523794;28;20052;-79
2022/12/28 23:30:04;;;;;;;5.63;3.67;;;;;;;-0.28;77.48;100594.75;10514062;28;20054;-79
2022/12/28 23:35:06;;;;;;;5.18;3.65;;;;;;;-0.03;76.83;100593.00;10504813;28;20036;-79
2022/12/28 23:40:10;;;;;;;6.85;3.90;;;;;;;0.23;76.30;100595.59;10505005;28;20057;-79
2022/12/28 23:45:16;;;;;;;6.32;4.03;;;;;;;0.32;75.57;100601.56;10503505;28;20047;-79
2022/12/28 23:50:18;;;;;;;5.32;3.00;;;;;;;0.25;75.07;100601.63;10467798;28;20049;-79
2022/12/28 23:55:20;;;;;;;3.45;2.22;;;;;;;0.30;74.98;100599.09;10486820;28;20057;-79
